createdAt,value
2019-05-17T17:40:22.460Z,98939.81
2019-05-17T17:42:51.572Z,98944.96
2019-05-17T17:45:21.604Z,98940.25
2019-05-17T17:47:50.894Z,98942.78
2019-05-17T17:50:20.204Z,98941.64
2019-05-17T17:52:51.195Z,98939.34
2019-05-17T17:55:21.274Z,98947.41
2019-05-17T17:57:51.468Z,98945.13
2019-05-17T18:00:21.836Z,98938.42
2019-05-17T18:02:51.367Z,98942.36
2019-05-17T18:05:20.634Z,98933.22
2019-05-17T18:07:49.748Z,98942.67
2019-05-17T18:10:31.125Z,98935.50
2019-05-17T18:13:00.253Z,98938.47
2019-05-17T18:15:37.486Z,98934.39
2019-05-17T18:18:06.822Z,98935.67
2019-05-17T18:20:36.106Z,98933.28
2019-05-17T18:23:06.201Z,98931.83
2019-05-17T18:25:35.441Z,98940.16
2019-05-17T18:28:04.925Z,98952.06
2019-05-17T18:30:34.078Z,98940.52
2019-05-17T18:33:03.171Z,98953.02
2019-05-17T18:35:32.355Z,98952.52
2019-05-17T18:38:01.683Z,98950.32
2019-05-17T18:40:30.835Z,98952.47
2019-05-17T18:43:00.032Z,98954.00
2019-05-17T18:45:29.150Z,98954.85
2019-05-17T18:47:58.769Z,98962.15
2019-05-17T18:50:28.141Z,98960.98
2019-05-17T18:52:57.782Z,98957.25
2019-05-17T18:55:26.966Z,98961.16
2019-05-17T18:57:56.366Z,98968.56
2019-05-17T19:00:25.737Z,98966.13
2019-05-17T19:02:54.861Z,98967.81
2019-05-17T19:05:24.358Z,98969.17
2019-05-17T19:07:53.507Z,98970.24
2019-05-17T19:10:22.779Z,98968.57
2019-05-17T19:12:51.836Z,98968.38
2019-05-17T19:15:21.691Z,98966.53
2019-05-17T19:17:51.232Z,98971.06
2019-05-17T19:20:20.808Z,98976.54
2019-05-17T19:22:50.589Z,98974.45
2019-05-17T19:25:19.733Z,98977.42
2019-05-17T19:27:49.183Z,98981.80
2019-05-17T19:30:19.610Z,98985.09
2019-05-17T19:32:48.931Z,98988.66
2019-05-17T19:35:18.071Z,99000.84
2019-05-17T19:37:47.355Z,99001.41
2019-05-17T19:40:16.655Z,99003.04
2019-05-17T19:42:45.773Z,99014.14
2019-05-17T19:45:17.172Z,99012.30
2019-05-17T19:47:46.570Z,99006.87
2019-05-17T19:50:16.414Z,99012.83
2019-05-17T19:52:45.501Z,99020.72
2019-05-17T19:55:14.699Z,99014.75
2019-05-17T19:57:43.874Z,99026.41
2019-05-17T20:00:14.017Z,99027.51
2019-05-17T20:02:44.040Z,99024.52
2019-05-17T20:05:16.152Z,99025.33
2019-05-17T20:07:45.516Z,99031.84
2019-05-17T20:10:14.921Z,99035.10
2019-05-17T20:12:44.118Z,99045.66
2019-05-17T20:15:17.919Z,99044.33
2019-05-17T20:17:44.303Z,99047.30
2019-05-17T20:20:13.690Z,99047.57
2019-05-17T20:22:42.826Z,99055.16
2019-05-17T20:25:12.167Z,99052.99
2019-05-17T20:27:41.278Z,99060.25
2019-05-17T20:30:11.320Z,99059.45
2019-05-17T20:32:40.430Z,99062.34
2019-05-17T20:35:11.533Z,99067.83
2019-05-17T20:37:40.808Z,99062.90
2019-05-17T20:40:10.117Z,99065.64
2019-05-17T20:42:39.306Z,99066.66
2019-05-17T20:45:10.348Z,99068.78
2019-05-17T20:47:39.618Z,99065.58
2019-05-17T20:50:10.870Z,99068.48
2019-05-17T20:52:40.061Z,99067.44
2019-05-17T20:55:09.605Z,99068.78
2019-05-17T20:57:38.972Z,99069.88
2019-05-17T21:00:11.066Z,99075.18
2019-05-17T21:02:40.178Z,99073.83
2019-05-17T21:05:09.975Z,99073.30
2019-05-17T21:07:39.801Z,99071.83
2019-05-17T21:10:09.494Z,99058.36
2019-05-17T21:12:38.828Z,99067.59
2019-05-17T21:15:08.418Z,99065.89
2019-05-17T21:17:37.580Z,99060.75
2019-05-17T21:20:08.176Z,99064.50
2019-05-17T21:22:37.752Z,99062.58
2019-05-17T21:25:07.192Z,99060.70
2019-05-17T21:27:37.005Z,99058.77
2019-05-17T21:30:06.764Z,99060.91
2019-05-17T21:32:36.319Z,99060.34
2019-05-17T21:35:06.522Z,99072.80
2019-05-17T21:37:36.229Z,99068.71
2019-05-17T21:40:07.361Z,99065.23
2019-05-17T21:42:37.185Z,99067.41
2019-05-17T21:45:06.687Z,99069.02
2019-05-17T21:47:35.988Z,99071.71
2019-05-17T21:50:05.340Z,99068.49
2019-05-17T21:52:35.092Z,99065.80
2019-05-17T21:55:04.185Z,99072.23
2019-05-17T21:57:33.541Z,99070.58
2019-05-17T22:00:02.661Z,99068.81
2019-05-17T22:02:31.992Z,99073.44
2019-05-17T22:05:01.133Z,99073.91
2019-05-17T22:07:30.267Z,99075.83
2019-05-17T22:09:59.626Z,99073.22
2019-05-17T22:12:28.768Z,99079.14
2019-05-17T22:14:58.053Z,99076.28
2019-05-17T22:17:27.165Z,99074.74
2019-05-17T22:19:56.472Z,99078.27
2019-05-17T22:22:25.872Z,99082.27
2019-05-17T22:24:54.981Z,99078.78
2019-05-17T22:27:24.290Z,99084.02
2019-05-17T22:29:53.432Z,99085.03
2019-05-17T22:32:22.533Z,99087.25
2019-05-17T22:34:51.891Z,99080.20
2019-05-17T22:37:21.014Z,99081.28
2019-05-17T22:39:50.414Z,99084.17
2019-05-17T22:42:19.528Z,99082.25
2019-05-17T22:44:49.002Z,99075.95
2019-05-17T22:47:18.086Z,99079.25
2019-05-17T22:49:47.251Z,99083.73
2019-05-17T22:52:16.303Z,99085.32
2019-05-17T22:54:45.586Z,99090.91
2019-05-17T22:57:14.709Z,99089.55
2019-05-17T22:59:44.073Z,99090.23
2019-05-17T23:02:13.186Z,99094.03
2019-05-17T23:04:42.487Z,99095.02
2019-05-17T23:07:11.639Z,99098.15
2019-05-17T23:09:40.856Z,99095.13
2019-05-17T23:12:10.172Z,99096.28
2019-05-17T23:14:39.235Z,99091.56
2019-05-17T23:17:08.475Z,99093.66
2019-05-17T23:19:37.818Z,99083.12
2019-05-17T23:22:07.044Z,99086.62
2019-05-17T23:24:36.149Z,99085.50
2019-05-17T23:27:05.367Z,99085.21
2019-05-17T23:29:34.467Z,99087.77
2019-05-17T23:32:03.967Z,99094.09
2019-05-17T23:34:33.073Z,99092.14
2019-05-17T23:37:02.434Z,99085.08
2019-05-17T23:39:31.549Z,99089.95
2019-05-17T23:42:00.868Z,99086.92
2019-05-17T23:44:29.970Z,99091.52
2019-05-17T23:47:06.966Z,99088.58
2019-05-17T23:49:30.398Z,99095.22
2019-05-17T23:51:59.748Z,99096.06
2019-05-17T23:54:28.822Z,99096.05
2019-05-17T23:56:58.146Z,99099.27
2019-05-17T23:59:27.248Z,99095.14
